sensor_id;sensor_type;location;lat;lon;timestamp;P1;durP1;ratioP1;P2;durP2;ratioP2
24216;SDS011;12356;49.386;8.688;2023-07-20T00:02:17;3.97;;;1.92;;
24216;SDS011;12356;49.386;8.688;2023-07-20T00:04:47;3.22;;;1.90;;
24216;SDS011;12356;49.386;8.688;2023-07-20T00:07:18;5.70;;;2.00;;
24216;SDS011;12356;49.386;8.688;2023-07-20T00:09:48;2.85;;;1.90;;
24216;SDS011;12356;49.386;8.688;2023-07-20T00:12:19;2.65;;;1.85;;
24216;SDS011;12356;49.386;8.688;2023-07-20T00:14:50;5.35;;;2.00;;
24216;SDS011;12356;49.386;8.688;2023-07-20T00:17:23;3.00;;;1.70;;
24216;SDS011;12356;49.386;8.688;2023-07-20T00:19:54;4.88;;;2.13;;
24216;SDS011;12356;49.386;8.688;2023-07-20T00:22:31;4.15;;;2.10;;
24216;SDS011;12356;49.386;8.688;2023-07-20T00:25:02;4.82;;;2.13;;
24216;SDS011;12356;49.386;8.688;2023-07-20T00:27:32;3.50;;;2.08;;
24216;SDS011;12356;49.386;8.688;2023-07-20T00:30:03;3.40;;;2.00;;
24216;SDS011;12356;49.386;8.688;2023-07-20T00:32:34;5.18;;;2.30;;
24216;SDS011;12356;49.386;8.688;2023-07-20T00:35:05;4.18;;;1.95;;
24216;SDS011;12356;49.386;8.688;2023-07-20T00:37:36;4.35;;;1.98;;
24216;SDS011;12356;49.386;8.688;2023-07-20T00:40:07;5.00;;;1.73;;
24216;SDS011;12356;49.386;8.688;2023-07-20T00:42:38;3.05;;;1.80;;
24216;SDS011;12356;49.386;8.688;2023-07-20T00:45:09;4.20;;;1.80;;
24216;SDS011;12356;49.386;8.688;2023-07-20T00:47:40;2.42;;;1.75;;
24216;SDS011;12356;49.386;8.688;2023-07-20T00:50:10;3.63;;;1.83;;
24216;SDS011;12356;49.386;8.688;2023-07-20T00:52:42;3.83;;;1.80;;
24216;SDS011;12356;49.386;8.688;2023-07-20T00:55:13;3.88;;;2.00;;
24216;SDS011;12356;49.386;8.688;2023-07-20T00:57:44;6.85;;;1.90;;
24216;SDS011;12356;49.386;8.688;2023-07-20T01:00:14;2.92;;;1.60;;
24216;SDS011;12356;49.386;8.688;2023-07-20T01:02:45;4.00;;;1.80;;
24216;SDS011;12356;49.386;8.688;2023-07-20T01:05:17;4.93;;;1.80;;
24216;SDS011;12356;49.386;8.688;2023-07-20T01:08:07;3.60;;;2.00;;
24216;SDS011;12356;49.386;8.688;2023-07-20T01:10:50;4.85;;;2.10;;
24216;SDS011;12356;49.386;8.688;2023-07-20T01:13:25;4.15;;;1.80;;
24216;SDS011;12356;49.386;8.688;2023-07-20T01:15:57;4.65;;;1.98;;
24216;SDS011;12356;49.386;8.688;2023-07-20T01:18:30;5.82;;;2.00;;
24216;SDS011;12356;49.386;8.688;2023-07-20T01:21:06;2.88;;;1.75;;
24216;SDS011;12356;49.386;8.688;2023-07-20T01:32:39;3.08;;;1.80;;
24216;SDS011;12356;49.386;8.688;2023-07-20T01:35:13;3.63;;;2.00;;
24216;SDS011;12356;49.386;8.688;2023-07-20T01:37:46;2.95;;;1.80;;
24216;SDS011;12356;49.386;8.688;2023-07-20T01:40:17;4.47;;;2.20;;
24216;SDS011;12356;49.386;8.688;2023-07-20T01:42:49;4.30;;;2.00;;
24216;SDS011;12356;49.386;8.688;2023-07-20T01:45:21;4.47;;;1.95;;
24216;SDS011;12356;49.386;8.688;2023-07-20T01:47:52;4.57;;;2.17;;
24216;SDS011;12356;49.386;8.688;2023-07-20T01:50:23;5.65;;;2.15;;
24216;SDS011;12356;49.386;8.688;2023-07-20T01:52:53;4.05;;;2.00;;
24216;SDS011;12356;49.386;8.688;2023-07-20T01:55:24;5.00;;;2.08;;
24216;SDS011;12356;49.386;8.688;2023-07-20T01:57:54;5.70;;;1.95;;
24216;SDS011;12356;49.386;8.688;2023-07-20T02:00:25;6.80;;;2.03;;
24216;SDS011;12356;49.386;8.688;2023-07-20T02:02:56;3.40;;;1.95;;
24216;SDS011;12356;49.386;8.688;2023-07-20T02:05:27;3.17;;;1.80;;
24216;SDS011;12356;49.386;8.688;2023-07-20T02:07:57;3.50;;;2.10;;
24216;SDS011;12356;49.386;8.688;2023-07-20T02:10:28;4.40;;;2.40;;
24216;SDS011;12356;49.386;8.688;2023-07-20T02:12:58;4.88;;;2.17;;
24216;SDS011;12356;49.386;8.688;2023-07-20T02:15:29;4.20;;;2.08;;
24216;SDS011;12356;49.386;8.688;2023-07-20T02:18:00;5.13;;;2.05;;
24216;SDS011;12356;49.386;8.688;2023-07-20T02:20:30;8.68;;;2.40;;
24216;SDS011;12356;49.386;8.688;2023-07-20T02:23:01;3.78;;;2.20;;
24216;SDS011;12356;49.386;8.688;2023-07-20T02:25:32;4.32;;;2.10;;
24216;SDS011;12356;49.386;8.688;2023-07-20T02:28:03;5.05;;;1.95;;
24216;SDS011;12356;49.386;8.688;2023-07-20T02:30:34;3.33;;;2.00;;
24216;SDS011;12356;49.386;8.688;2023-07-20T02:33:08;3.78;;;1.88;;
24216;SDS011;12356;49.386;8.688;2023-07-20T02:35:40;4.80;;;2.20;;
24216;SDS011;12356;49.386;8.688;2023-07-20T02:38:11;4.38;;;2.15;;
24216;SDS011;12356;49.386;8.688;2023-07-20T02:40:41;4.68;;;2.40;;
24216;SDS011;12356;49.386;8.688;2023-07-20T02:43:12;8.02;;;2.42;;
24216;SDS011;12356;49.386;8.688;2023-07-20T02:45:43;5.05;;;2.10;;
24216;SDS011;12356;49.386;8.688;2023-07-20T02:48:13;4.40;;;2.33;;
24216;SDS011;12356;49.386;8.688;2023-07-20T02:50:44;4.30;;;2.33;;
24216;SDS011;12356;49.386;8.688;2023-07-20T02:53:15;3.33;;;2.10;;
24216;SDS011;12356;49.386;8.688;2023-07-20T02:55:45;3.88;;;2.10;;
24216;SDS011;12356;49.386;8.688;2023-07-20T02:58:16;3.55;;;2.38;;
24216;SDS011;12356;49.386;8.688;2023-07-20T03:00:46;5.65;;;2.45;;
24216;SDS011;12356;49.386;8.688;2023-07-20T03:03:17;4.18;;;2.40;;
24216;SDS011;12356;49.386;8.688;2023-07-20T03:05:47;3.65;;;2.28;;
24216;SDS011;12356;49.386;8.688;2023-07-20T03:08:24;3.25;;;2.38;;
24216;SDS011;12356;49.386;8.688;2023-07-20T03:10:54;4.28;;;2.17;;
24216;SDS011;12356;49.386;8.688;2023-07-20T03:13:25;5.32;;;2.08;;
24216;SDS011;12356;49.386;8.688;2023-07-20T03:15:55;4.00;;;2.53;;
24216;SDS011;12356;49.386;8.688;2023-07-20T03:18:26;5.78;;;2.30;;
24216;SDS011;12356;49.386;8.688;2023-07-20T03:20:57;5.65;;;2.30;;
24216;SDS011;12356;49.386;8.688;2023-07-20T03:23:27;5.68;;;2.42;;
24216;SDS011;12356;49.386;8.688;2023-07-20T03:25:58;4.97;;;2.15;;
24216;SDS011;12356;49.386;8.688;2023-07-20T03:28:28;4.65;;;2.50;;
24216;SDS011;12356;49.386;8.688;2023-07-20T03:30:59;4.78;;;2.33;;
24216;SDS011;12356;49.386;8.688;2023-07-20T03:33:30;4.57;;;2.15;;
24216;SDS011;12356;49.386;8.688;2023-07-20T03:36:02;3.85;;;2.33;;
24216;SDS011;12356;49.386;8.688;2023-07-20T03:38:32;3.13;;;2.10;;
24216;SDS011;12356;49.386;8.688;2023-07-20T03:41:03;3.63;;;2.30;;
24216;SDS011;12356;49.386;8.688;2023-07-20T03:43:34;5.45;;;2.20;;
24216;SDS011;12356;49.386;8.688;2023-07-20T03:46:04;4.03;;;2.28;;
24216;SDS011;12356;49.386;8.688;2023-07-20T03:48:37;6.20;;;2.33;;
24216;SDS011;12356;49.386;8.688;2023-07-20T03:51:07;6.32;;;1.90;;
24216;SDS011;12356;49.386;8.688;2023-07-20T03:53:38;4.88;;;2.00;;
24216;SDS011;12356;49.386;8.688;2023-07-20T03:56:09;6.45;;;2.35;;
24216;SDS011;12356;49.386;8.688;2023-07-20T03:58:39;3.67;;;2.10;;
24216;SDS011;12356;49.386;8.688;2023-07-20T04:01:10;4.43;;;2.28;;
24216;SDS011;12356;49.386;8.688;2023-07-20T04:03:43;3.42;;;2.10;;
24216;SDS011;12356;49.386;8.688;2023-07-20T04:06:14;5.30;;;2.20;;
24216;SDS011;12356;49.386;8.688;2023-07-20T04:08:44;4.78;;;1.90;;
24216;SDS011;12356;49.386;8.688;2023-07-20T04:11:17;5.30;;;2.20;;
24216;SDS011;12356;49.386;8.688;2023-07-20T04:13:47;3.92;;;2.10;;
24216;SDS011;12356;49.386;8.688;2023-07-20T04:16:18;3.33;;;2.22;;
24216;SDS011;12356;49.386;8.688;2023-07-20T04:18:50;7.85;;;2.30;;
24216;SDS011;12356;49.386;8.688;2023-07-20T04:21:20;4.18;;;2.42;;
24216;SDS011;12356;49.386;8.688;2023-07-20T04:23:51;3.33;;;2.13;;
24216;SDS011;12356;49.386;8.688;2023-07-20T04:26:22;5.13;;;2.20;;
24216;SDS011;12356;49.386;8.688;2023-07-20T04:28:52;6.20;;;2.40;;
24216;SDS011;12356;49.386;8.688;2023-07-20T04:31:23;4.03;;;2.50;;
24216;SDS011;12356;49.386;8.688;2023-07-20T04:33:53;4.95;;;2.13;;
24216;SDS011;12356;49.386;8.688;2023-07-20T04:36:24;5.10;;;2.13;;
24216;SDS011;12356;49.386;8.688;2023-07-20T04:38:55;3.15;;;2.10;;
24216;SDS011;12356;49.386;8.688;2023-07-20T04:41:25;4.25;;;2.13;;
24216;SDS011;12356;49.386;8.688;2023-07-20T04:43:56;4.38;;;2.55;;
24216;SDS011;12356;49.386;8.688;2023-07-20T04:46:26;4.88;;;2.20;;
24216;SDS011;12356;49.386;8.688;2023-07-20T04:48:57;4.50;;;2.17;;
24216;SDS011;12356;49.386;8.688;2023-07-20T04:51:27;3.95;;;2.20;;
24216;SDS011;12356;49.386;8.688;2023-07-20T04:54:00;3.25;;;2.10;;
24216;SDS011;12356;49.386;8.688;2023-07-20T04:56:30;5.07;;;2.03;;
24216;SDS011;12356;49.386;8.688;2023-07-20T04:59:01;4.20;;;2.42;;
24216;SDS011;12356;49.386;8.688;2023-07-20T05:01:32;4.63;;;2.17;;
24216;SDS011;12356;49.386;8.688;2023-07-20T05:04:02;4.45;;;1.90;;
24216;SDS011;12356;49.386;8.688;2023-07-20T05:06:33;7.03;;;2.30;;
24216;SDS011;12356;49.386;8.688;2023-07-20T05:09:03;3.60;;;2.00;;
24216;SDS011;12356;49.386;8.688;2023-07-20T05:11:35;4.87;;;1.83;;
24216;SDS011;12356;49.386;8.688;2023-07-20T05:14:06;4.07;;;2.22;;
24216;SDS011;12356;49.386;8.688;2023-07-20T05:16:36;3.63;;;1.90;;
24216;SDS011;12356;49.386;8.688;2023-07-20T05:19:08;5.00;;;2.10;;
24216;SDS011;12356;49.386;8.688;2023-07-20T05:21:39;4.60;;;2.17;;
24216;SDS011;12356;49.386;8.688;2023-07-20T05:24:09;3.42;;;2.10;;
24216;SDS011;12356;49.386;8.688;2023-07-20T05:26:40;6.55;;;2.10;;
24216;SDS011;12356;49.386;8.688;2023-07-20T05:29:11;3.53;;;1.90;;
24216;SDS011;12356;49.386;8.688;2023-07-20T05:31:41;5.28;;;2.15;;
24216;SDS011;12356;49.386;8.688;2023-07-20T05:34:12;4.20;;;2.00;;
24216;SDS011;12356;49.386;8.688;2023-07-20T05:36:42;3.45;;;2.40;;
24216;SDS011;12356;49.386;8.688;2023-07-20T05:39:13;5.22;;;2.13;;
24216;SDS011;12356;49.386;8.688;2023-07-20T05:41:43;4.18;;;2.10;;
24216;SDS011;12356;49.386;8.688;2023-07-20T05:44:14;4.15;;;2.17;;
24216;SDS011;12356;49.386;8.688;2023-07-20T05:46:45;6.20;;;2.08;;
24216;SDS011;12356;49.386;8.688;2023-07-20T05:49:16;6.65;;;1.92;;
24216;SDS011;12356;49.386;8.688;2023-07-20T05:51:46;3.47;;;2.00;;
24216;SDS011;12356;49.386;8.688;2023-07-20T05:54:17;3.97;;;2.00;;
24216;SDS011;12356;49.386;8.688;2023-07-20T05:56:49;7.23;;;2.10;;
24216;SDS011;12356;49.386;8.688;2023-07-20T05:59:20;3.13;;;2.00;;
24216;SDS011;12356;49.386;8.688;2023-07-20T06:01:50;7.32;;;2.20;;
24216;SDS011;12356;49.386;8.688;2023-07-20T06:04:21;4.18;;;2.30;;
24216;SDS011;12356;49.386;8.688;2023-07-20T06:06:51;3.08;;;2.00;;
24216;SDS011;12356;49.386;8.688;2023-07-20T06:09:22;4.47;;;2.20;;
24216;SDS011;12356;49.386;8.688;2023-07-20T06:11:53;4.63;;;2.20;;
24216;SDS011;12356;49.386;8.688;2023-07-20T06:14:23;8.25;;;2.13;;
24216;SDS011;12356;49.386;8.688;2023-07-20T06:16:54;5.10;;;2.20;;
24216;SDS011;12356;49.386;8.688;2023-07-20T06:19:25;18.60;;;2.85;;
24216;SDS011;12356;49.386;8.688;2023-07-20T06:21:55;27.02;;;3.38;;
24216;SDS011;12356;49.386;8.688;2023-07-20T06:24:26;13.48;;;2.90;;
24216;SDS011;12356;49.386;8.688;2023-07-20T06:26:56;9.00;;;2.60;;
24216;SDS011;12356;49.386;8.688;2023-07-20T06:29:27;4.90;;;2.25;;
24216;SDS011;12356;49.386;8.688;2023-07-20T06:31:57;7.97;;;2.38;;
24216;SDS011;12356;49.386;8.688;2023-07-20T06:34:28;6.30;;;2.35;;
24216;SDS011;12356;49.386;8.688;2023-07-20T06:36:59;6.65;;;2.40;;
24216;SDS011;12356;49.386;8.688;2023-07-20T06:39:30;3.38;;;2.30;;
24216;SDS011;12356;49.386;8.688;2023-07-20T06:42:00;4.82;;;2.38;;
24216;SDS011;12356;49.386;8.688;2023-07-20T06:44:31;5.03;;;2.13;;
24216;SDS011;12356;49.386;8.688;2023-07-20T06:47:02;5.90;;;2.20;;
24216;SDS011;12356;49.386;8.688;2023-07-20T06:49:33;4.72;;;2.22;;
24216;SDS011;12356;49.386;8.688;2023-07-20T06:52:03;5.88;;;2.40;;
24216;SDS011;12356;49.386;8.688;2023-07-20T06:54:34;5.55;;;2.42;;
24216;SDS011;12356;49.386;8.688;2023-07-20T06:57:05;7.20;;;2.30;;
24216;SDS011;12356;49.386;8.688;2023-07-20T06:59:36;4.47;;;2.40;;
24216;SDS011;12356;49.386;8.688;2023-07-20T07:02:06;6.03;;;2.95;;
24216;SDS011;12356;49.386;8.688;2023-07-20T07:04:38;4.22;;;3.17;;
24216;SDS011;12356;49.386;8.688;2023-07-20T07:07:08;5.80;;;3.55;;
24216;SDS011;12356;49.386;8.688;2023-07-20T07:09:39;7.35;;;2.80;;
24216;SDS011;12356;49.386;8.688;2023-07-20T07:12:10;6.93;;;2.95;;
24216;SDS011;12356;49.386;8.688;2023-07-20T07:14:40;7.63;;;2.75;;
24216;SDS011;12356;49.386;8.688;2023-07-20T07:17:11;5.80;;;2.25;;
24216;SDS011;12356;49.386;8.688;2023-07-20T07:19:42;4.70;;;2.40;;
24216;SDS011;12356;49.386;8.688;2023-07-20T07:22:13;5.72;;;2.35;;
24216;SDS011;12356;49.386;8.688;2023-07-20T07:24:43;6.20;;;2.70;;
24216;SDS011;12356;49.386;8.688;2023-07-20T07:27:14;6.13;;;2.42;;
24216;SDS011;12356;49.386;8.688;2023-07-20T07:29:47;7.13;;;2.20;;
24216;SDS011;12356;49.386;8.688;2023-07-20T07:32:19;3.75;;;2.17;;
24216;SDS011;12356;49.386;8.688;2023-07-20T07:34:49;3.85;;;2.72;;
24216;SDS011;12356;49.386;8.688;2023-07-20T07:37:20;4.63;;;2.63;;
24216;SDS011;12356;49.386;8.688;2023-07-20T07:39:51;4.68;;;2.58;;
24216;SDS011;12356;49.386;8.688;2023-07-20T07:42:21;3.10;;;2.17;;
24216;SDS011;12356;49.386;8.688;2023-07-20T07:44:52;5.10;;;2.15;;
24216;SDS011;12356;49.386;8.688;2023-07-20T07:47:22;5.00;;;2.38;;
24216;SDS011;12356;49.386;8.688;2023-07-20T07:49:53;6.18;;;2.10;;
24216;SDS011;12356;49.386;8.688;2023-07-20T07:52:23;7.50;;;2.25;;
24216;SDS011;12356;49.386;8.688;2023-07-20T07:54:54;4.65;;;2.17;;
24216;SDS011;12356;49.386;8.688;2023-07-20T07:57:24;3.30;;;2.20;;
24216;SDS011;12356;49.386;8.688;2023-07-20T07:59:55;4.57;;;1.90;;
24216;SDS011;12356;49.386;8.688;2023-07-20T08:02:26;4.00;;;1.80;;
24216;SDS011;12356;49.386;8.688;2023-07-20T08:04:56;7.30;;;2.20;;
24216;SDS011;12356;49.386;8.688;2023-07-20T08:07:27;3.75;;;2.05;;
24216;SDS011;12356;49.386;8.688;2023-07-20T08:09:58;4.18;;;1.88;;
24216;SDS011;12356;49.386;8.688;2023-07-20T08:12:30;4.30;;;2.10;;
24216;SDS011;12356;49.386;8.688;2023-07-20T08:15:01;3.80;;;2.10;;
24216;SDS011;12356;49.386;8.688;2023-07-20T08:17:32;4.47;;;1.98;;
24216;SDS011;12356;49.386;8.688;2023-07-20T08:20:03;3.97;;;1.60;;
24216;SDS011;12356;49.386;8.688;2023-07-20T08:22:36;3.75;;;2.05;;
24216;SDS011;12356;49.386;8.688;2023-07-20T08:25:06;5.90;;;2.03;;
24216;SDS011;12356;49.386;8.688;2023-07-20T08:27:37;3.20;;;1.77;;
24216;SDS011;12356;49.386;8.688;2023-07-20T08:30:08;3.97;;;1.60;;
24216;SDS011;12356;49.386;8.688;2023-07-20T08:32:39;3.45;;;1.60;;
24216;SDS011;12356;49.386;8.688;2023-07-20T08:35:10;3.92;;;1.80;;
24216;SDS011;12356;49.386;8.688;2023-07-20T08:37:41;5.28;;;1.50;;
24216;SDS011;12356;49.386;8.688;2023-07-20T08:40:11;4.32;;;1.58;;
24216;SDS011;12356;49.386;8.688;2023-07-20T08:42:44;3.75;;;1.58;;
24216;SDS011;12356;49.386;8.688;2023-07-20T08:45:15;1.77;;;1.33;;
24216;SDS011;12356;49.386;8.688;2023-07-20T08:47:47;2.10;;;1.50;;
24216;SDS011;12356;49.386;8.688;2023-07-20T08:50:19;3.47;;;1.63;;
24216;SDS011;12356;49.386;8.688;2023-07-20T08:52:51;6.55;;;1.55;;
24216;SDS011;12356;49.386;8.688;2023-07-20T08:55:24;2.70;;;1.50;;
24216;SDS011;12356;49.386;8.688;2023-07-20T08:57:58;2.17;;;1.38;;
24216;SDS011;12356;49.386;8.688;2023-07-20T09:00:30;3.03;;;1.58;;
24216;SDS011;12356;49.386;8.688;2023-07-20T09:03:01;2.73;;;1.60;;
24216;SDS011;12356;49.386;8.688;2023-07-20T09:05:33;3.72;;;1.88;;
24216;SDS011;12356;49.386;8.688;2023-07-20T09:08:05;4.43;;;1.67;;
24216;SDS011;12356;49.386;8.688;2023-07-20T09:10:37;2.88;;;1.60;;
24216;SDS011;12356;49.386;8.688;2023-07-20T09:13:07;5.63;;;1.60;;
24216;SDS011;12356;49.386;8.688;2023-07-20T09:15:38;3.03;;;1.60;;
24216;SDS011;12356;49.386;8.688;2023-07-20T09:18:09;3.83;;;1.63;;
24216;SDS011;12356;49.386;8.688;2023-07-20T09:20:39;5.47;;;1.50;;
24216;SDS011;12356;49.386;8.688;2023-07-20T09:23:10;2.55;;;1.60;;
24216;SDS011;12356;49.386;8.688;2023-07-20T09:25:41;3.22;;;1.40;;
24216;SDS011;12356;49.386;8.688;2023-07-20T09:28:11;5.80;;;1.30;;
24216;SDS011;12356;49.386;8.688;2023-07-20T09:30:42;2.60;;;1.63;;
24216;SDS011;12356;49.386;8.688;2023-07-20T09:33:20;4.05;;;1.50;;
24216;SDS011;12356;49.386;8.688;2023-07-20T09:35:51;2.10;;;1.30;;
24216;SDS011;12356;49.386;8.688;2023-07-20T09:38:22;2.50;;;1.40;;
24216;SDS011;12356;49.386;8.688;2023-07-20T09:40:53;2.28;;;1.33;;
24216;SDS011;12356;49.386;8.688;2023-07-20T09:43:23;2.03;;;1.30;;
24216;SDS011;12356;49.386;8.688;2023-07-20T09:45:58;3.17;;;1.50;;
24216;SDS011;12356;49.386;8.688;2023-07-20T09:48:29;3.15;;;1.60;;
24216;SDS011;12356;49.386;8.688;2023-07-20T09:50:59;3.88;;;1.70;;
24216;SDS011;12356;49.386;8.688;2023-07-20T09:53:32;4.27;;;1.50;;
24216;SDS011;12356;49.386;8.688;2023-07-20T09:56:03;3.67;;;1.48;;
24216;SDS011;12356;49.386;8.688;2023-07-20T09:58:34;3.00;;;1.42;;
24216;SDS011;12356;49.386;8.688;2023-07-20T10:01:06;3.78;;;1.63;;
24216;SDS011;12356;49.386;8.688;2023-07-20T10:03:38;5.22;;;1.45;;
24216;SDS011;12356;49.386;8.688;2023-07-20T10:06:09;5.38;;;1.90;;
24216;SDS011;12356;49.386;8.688;2023-07-20T10:08:42;3.05;;;1.38;;
24216;SDS011;12356;49.386;8.688;2023-07-20T10:11:17;2.75;;;1.70;;
24216;SDS011;12356;49.386;8.688;2023-07-20T10:13:50;3.55;;;1.70;;
24216;SDS011;12356;49.386;8.688;2023-07-20T10:16:27;5.05;;;1.50;;
24216;SDS011;12356;49.386;8.688;2023-07-20T10:19:10;3.92;;;1.52;;
24216;SDS011;12356;49.386;8.688;2023-07-20T10:21:46;2.67;;;1.75;;
24216;SDS011;12356;49.386;8.688;2023-07-20T10:24:21;1.30;;;1.20;;
24216;SDS011;12356;49.386;8.688;2023-07-20T10:26:55;3.60;;;1.70;;
24216;SDS011;12356;49.386;8.688;2023-07-20T10:29:26;4.03;;;1.73;;
24216;SDS011;12356;49.386;8.688;2023-07-20T10:31:57;3.33;;;1.53;;
24216;SDS011;12356;49.386;8.688;2023-07-20T10:34:28;4.38;;;1.50;;
24216;SDS011;12356;49.386;8.688;2023-07-20T10:36:59;2.55;;;1.40;;
24216;SDS011;12356;49.386;8.688;2023-07-20T10:39:33;3.13;;;1.50;;
24216;SDS011;12356;49.386;8.688;2023-07-20T10:42:07;3.03;;;1.52;;
24216;SDS011;12356;49.386;8.688;2023-07-20T10:44:41;3.83;;;1.42;;
24216;SDS011;12356;49.386;8.688;2023-07-20T10:47:14;2.30;;;1.35;;
24216;SDS011;12356;49.386;8.688;2023-07-20T10:49:57;3.58;;;1.38;;
24216;SDS011;12356;49.386;8.688;2023-07-20T10:53:00;3.63;;;1.60;;
24216;SDS011;12356;49.386;8.688;2023-07-20T10:55:42;2.00;;;1.20;;
24216;SDS011;12356;49.386;8.688;2023-07-20T10:58:14;2.97;;;1.50;;
24216;SDS011;12356;49.386;8.688;2023-07-20T11:00:58;4.28;;;1.60;;
24216;SDS011;12356;49.386;8.688;2023-07-20T11:03:32;3.45;;;1.60;;
24216;SDS011;12356;49.386;8.688;2023-07-20T11:08:57;3.22;;;1.63;;
24216;SDS011;12356;49.386;8.688;2023-07-20T11:11:37;5.65;;;1.60;;
24216;SDS011;12356;49.386;8.688;2023-07-20T11:14:22;7.43;;;1.70;;
24216;SDS011;12356;49.386;8.688;2023-07-20T11:16:53;2.03;;;1.25;;
24216;SDS011;12356;49.386;8.688;2023-07-20T11:19:25;2.95;;;1.55;;
24216;SDS011;12356;49.386;8.688;2023-07-20T11:21:57;5.75;;;1.60;;
24216;SDS011;12356;49.386;8.688;2023-07-20T11:24:28;2.83;;;1.50;;
24216;SDS011;12356;49.386;8.688;2023-07-20T11:26:58;1.40;;;1.10;;
24216;SDS011;12356;49.386;8.688;2023-07-20T11:29:31;3.45;;;1.60;;
24216;SDS011;12356;49.386;8.688;2023-07-20T11:32:02;4.50;;;1.90;;
24216;SDS011;12356;49.386;8.688;2023-07-20T11:34:33;3.07;;;1.70;;
24216;SDS011;12356;49.386;8.688;2023-07-20T11:37:05;4.03;;;1.50;;
24216;SDS011;12356;49.386;8.688;2023-07-20T11:39:36;2.72;;;1.60;;
24216;SDS011;12356;49.386;8.688;2023-07-20T11:42:07;2.22;;;1.40;;
24216;SDS011;12356;49.386;8.688;2023-07-20T11:44:38;1.97;;;1.33;;
24216;SDS011;12356;49.386;8.688;2023-07-20T11:47:10;2.75;;;1.38;;
24216;SDS011;12356;49.386;8.688;2023-07-20T11:49:42;2.05;;;1.20;;
24216;SDS011;12356;49.386;8.688;2023-07-20T11:52:14;3.42;;;1.70;;
24216;SDS011;12356;49.386;8.688;2023-07-20T11:54:46;3.25;;;1.40;;
24216;SDS011;12356;49.386;8.688;2023-07-20T11:57:20;4.97;;;1.73;;
24216;SDS011;12356;49.386;8.688;2023-07-20T11:59:58;2.47;;;1.38;;
24216;SDS011;12356;49.386;8.688;2023-07-20T12:02:32;3.33;;;1.55;;
24216;SDS011;12356;49.386;8.688;2023-07-20T12:05:02;2.70;;;1.50;;
24216;SDS011;12356;49.386;8.688;2023-07-20T12:07:37;2.30;;;1.38;;
24216;SDS011;12356;49.386;8.688;2023-07-20T12:10:09;2.25;;;1.40;;
24216;SDS011;12356;49.386;8.688;2023-07-20T12:12:41;2.63;;;1.38;;
24216;SDS011;12356;49.386;8.688;2023-07-20T12:17:51;1.42;;;1.27;;
24216;SDS011;12356;49.386;8.688;2023-07-20T12:20:33;3.03;;;1.50;;
24216;SDS011;12356;49.386;8.688;2023-07-20T12:23:10;3.17;;;1.70;;
24216;SDS011;12356;49.386;8.688;2023-07-20T12:25:44;3.60;;;1.50;;
24216;SDS011;12356;49.386;8.688;2023-07-20T12:28:17;1.50;;;1.40;;
24216;SDS011;12356;49.386;8.688;2023-07-20T12:30:49;2.05;;;1.40;;
24216;SDS011;12356;49.386;8.688;2023-07-20T12:33:26;2.58;;;1.60;;
24216;SDS011;12356;49.386;8.688;2023-07-20T12:35:57;3.95;;;1.60;;
24216;SDS011;12356;49.386;8.688;2023-07-20T12:38:29;2.33;;;1.60;;
24216;SDS011;12356;49.386;8.688;2023-07-20T12:41:01;2.58;;;1.45;;
24216;SDS011;12356;49.386;8.688;2023-07-20T12:43:32;2.65;;;1.45;;
24216;SDS011;12356;49.386;8.688;2023-07-20T12:46:03;2.58;;;1.17;;
24216;SDS011;12356;49.386;8.688;2023-07-20T12:48:33;2.10;;;1.60;;
24216;SDS011;12356;49.386;8.688;2023-07-20T12:51:07;1.80;;;1.40;;
24216;SDS011;12356;49.386;8.688;2023-07-20T12:53:38;3.08;;;1.83;;
24216;SDS011;12356;49.386;8.688;2023-07-20T12:56:09;3.53;;;1.50;;
24216;SDS011;12356;49.386;8.688;2023-07-20T12:58:39;2.47;;;1.45;;
24216;SDS011;12356;49.386;8.688;2023-07-20T13:01:10;2.90;;;1.45;;
24216;SDS011;12356;49.386;8.688;2023-07-20T13:03:41;3.88;;;1.50;;
24216;SDS011;12356;49.386;8.688;2023-07-20T13:06:11;2.67;;;1.30;;
24216;SDS011;12356;49.386;8.688;2023-07-20T13:08:42;1.42;;;1.33;;
24216;SDS011;12356;49.386;8.688;2023-07-20T13:11:12;2.47;;;1.42;;
24216;SDS011;12356;49.386;8.688;2023-07-20T13:13:43;3.20;;;1.40;;
24216;SDS011;12356;49.386;8.688;2023-07-20T13:16:14;1.88;;;1.50;;
24216;SDS011;12356;49.386;8.688;2023-07-20T13:18:45;2.38;;;1.42;;
24216;SDS011;12356;49.386;8.688;2023-07-20T13:21:16;1.70;;;1.35;;
24216;SDS011;12356;49.386;8.688;2023-07-20T13:23:47;4.53;;;1.58;;
24216;SDS011;12356;49.386;8.688;2023-07-20T13:26:17;2.88;;;1.50;;
24216;SDS011;12356;49.386;8.688;2023-07-20T13:28:48;2.40;;;1.30;;
24216;SDS011;12356;49.386;8.688;2023-07-20T13:31:18;3.75;;;1.40;;
24216;SDS011;12356;49.386;8.688;2023-07-20T13:33:50;5.65;;;1.50;;
24216;SDS011;12356;49.386;8.688;2023-07-20T13:36:23;1.85;;;1.30;;
24216;SDS011;12356;49.386;8.688;2023-07-20T13:38:53;2.30;;;1.20;;
24216;SDS011;12356;49.386;8.688;2023-07-20T13:41:24;2.25;;;1.40;;
24216;SDS011;12356;49.386;8.688;2023-07-20T13:43:55;2.05;;;1.42;;
24216;SDS011;12356;49.386;8.688;2023-07-20T13:46:25;2.15;;;1.38;;
24216;SDS011;12356;49.386;8.688;2023-07-20T13:48:56;1.70;;;1.38;;
24216;SDS011;12356;49.386;8.688;2023-07-20T13:51:26;1.55;;;1.40;;
24216;SDS011;12356;49.386;8.688;2023-07-20T13:53:57;1.77;;;1.30;;
24216;SDS011;12356;49.386;8.688;2023-07-20T13:56:27;2.17;;;1.30;;
24216;SDS011;12356;49.386;8.688;2023-07-20T13:58:58;2.70;;;1.40;;
24216;SDS011;12356;49.386;8.688;2023-07-20T14:01:29;3.80;;;1.27;;
24216;SDS011;12356;49.386;8.688;2023-07-20T14:04:02;2.70;;;1.55;;
24216;SDS011;12356;49.386;8.688;2023-07-20T14:06:33;3.87;;;1.50;;
24216;SDS011;12356;49.386;8.688;2023-07-20T14:09:04;2.55;;;1.85;;
24216;SDS011;12356;49.386;8.688;2023-07-20T14:11:34;4.55;;;1.50;;
24216;SDS011;12356;49.386;8.688;2023-07-20T14:14:05;3.92;;;1.63;;
24216;SDS011;12356;49.386;8.688;2023-07-20T14:16:35;1.83;;;1.42;;
24216;SDS011;12356;49.386;8.688;2023-07-20T14:19:06;1.98;;;1.48;;
24216;SDS011;12356;49.386;8.688;2023-07-20T14:21:37;3.38;;;1.70;;
24216;SDS011;12356;49.386;8.688;2023-07-20T14:24:08;4.10;;;1.50;;
24216;SDS011;12356;49.386;8.688;2023-07-20T14:26:38;1.92;;;1.42;;
24216;SDS011;12356;49.386;8.688;2023-07-20T14:29:09;2.40;;;1.60;;
24216;SDS011;12356;49.386;8.688;2023-07-20T14:31:40;2.33;;;1.40;;
24216;SDS011;12356;49.386;8.688;2023-07-20T14:34:10;1.83;;;1.40;;
24216;SDS011;12356;49.386;8.688;2023-07-20T14:36:41;3.25;;;1.63;;
24216;SDS011;12356;49.386;8.688;2023-07-20T14:39:11;2.92;;;1.38;;
24216;SDS011;12356;49.386;8.688;2023-07-20T14:41:42;3.00;;;1.48;;
24216;SDS011;12356;49.386;8.688;2023-07-20T14:44:12;4.18;;;1.60;;
24216;SDS011;12356;49.386;8.688;2023-07-20T14:46:43;2.38;;;1.40;;
24216;SDS011;12356;49.386;8.688;2023-07-20T14:49:13;2.38;;;1.60;;
24216;SDS011;12356;49.386;8.688;2023-07-20T14:51:44;2.22;;;1.45;;
24216;SDS011;12356;49.386;8.688;2023-07-20T14:56:48;1.85;;;1.45;;
24216;SDS011;12356;49.386;8.688;2023-07-20T14:59:22;4.60;;;1.33;;
24216;SDS011;12356;49.386;8.688;2023-07-20T15:01:53;1.77;;;1.38;;
24216;SDS011;12356;49.386;8.688;2023-07-20T15:04:23;2.88;;;1.48;;
24216;SDS011;12356;49.386;8.688;2023-07-20T15:06:54;3.35;;;1.40;;
24216;SDS011;12356;49.386;8.688;2023-07-20T15:09:26;3.88;;;1.48;;
24216;SDS011;12356;49.386;8.688;2023-07-20T15:11:57;1.83;;;1.38;;
24216;SDS011;12356;49.386;8.688;2023-07-20T15:14:27;4.72;;;1.50;;
24216;SDS011;12356;49.386;8.688;2023-07-20T15:16:58;5.50;;;1.58;;
24216;SDS011;12356;49.386;8.688;2023-07-20T15:19:28;2.75;;;1.50;;
24216;SDS011;12356;49.386;8.688;2023-07-20T15:21:59;2.00;;;1.40;;
24216;SDS011;12356;49.386;8.688;2023-07-20T15:24:30;1.95;;;1.20;;
24216;SDS011;12356;49.386;8.688;2023-07-20T15:27:00;3.78;;;1.20;;
24216;SDS011;12356;49.386;8.688;2023-07-20T15:29:32;3.13;;;1.63;;
24216;SDS011;12356;49.386;8.688;2023-07-20T15:32:03;1.88;;;1.30;;